Spirit — PH7170 — position and weather

sailwx.info

Track history (hours):
 
Tides and Currents Weather Stations Pressure Air Temp Water Temp Dewpoint Dewpoint Depression Visibility Wind Speed Wind Dir Waves Ship Positions

Spirit

Last reported at 2017-Sep-28 14:36 UTC. Time now 2017-Oct-18 17:01 UTC.
Position N 36°58' W 008°03'.
Warning: this ship's position is 20 days out of date.

Length 14 m.

Type: Sailing vessel. MMSI: 244020915.

Date/timePositionNaut miles runAvg speedWind from/ knotsBaromVisibWave heightAir tempDewpointWater temp
2017-Sep-28 14:36N 36°58' W 008°03'1 6.5
2017-Sep-28 14:30N 36°58' W 008°03'3 5.1
2017-Sep-28 13:58N 36°58' W 008°07'2 4.4
2017-Sep-28 13:30N 36°58' W 008°09'3 5.9
2017-Sep-28 13:00N 36°58' W 008°13'3 6.4
2017-Sep-28 12:30N 36°58' W 008°17'3 6.3
2017-Sep-28 12:00N 36°59' W 008°21'3 6.2
2017-Sep-28 11:30N 36°59' W 008°25'3 6.3
2017-Sep-28 11:00N 36°59' W 008°29'3 6.5
2017-Sep-28 10:30N 36°59' W 008°33'3 6.3
2017-Sep-28 10:00N 36°60' W 008°37'3 6.1
2017-Sep-28 09:30N 36°60' W 008°41'3 6.0
2017-Sep-28 09:00N 37°00' W 008°44'3 6.1
2017-Sep-28 08:30N 37°00' W 008°48'3 5.9
2017-Sep-28 08:00N 37°01' W 008°52'3 0.2
2017-Sep-27 15:44N 37°00' W 008°56'10 4.7
2017-Sep-27 13:38N 37°10' W 008°59'31 6.8
2017-Sep-27 09:07N 37°40' W 008°54'2 6.7
2017-Sep-27 08:46N 37°42' W 008°53'2 6.5
2017-Sep-27 08:29N 37°44' W 008°53'3 6.6
2017-Sep-27 08:00N 37°47' W 008°53'3 6.7
2017-Sep-27 07:30N 37°51' W 008°53'3 6.6
2017-Sep-27 07:00N 37°54' W 008°52'3 5.9
2017-Sep-27 06:30N 37°57' W 008°52'0 0.0
2017-Sep-25 18:35N 37°57' W 008°52'0 0.0
2017-Sep-25 18:29N 37°57' W 008°52'0 0.1
2017-Sep-25 18:00N 37°57' W 008°52'2 3.3
2017-Sep-25 17:30N 37°56' W 008°54'3 5.3
2017-Sep-25 17:00N 37°57' W 008°57'3 5.8
2017-Sep-25 16:30N 37°59' W 008°59'3 5.4
2017-Sep-25 16:00N 38°02' W 009°00'3 5.4
2017-Sep-25 15:30N 38°04' W 009°02'3 5.1
2017-Sep-25 15:00N 38°06' W 009°04'3 5.0
2017-Sep-25 14:31N 38°08' W 009°05'3 5.3
2017-Sep-25 14:00N 38°11' W 009°07'3 5.3
2017-Sep-25 13:30N 38°13' W 009°08'3 5.6
2017-Sep-25 13:00N 38°16' W 009°10'3 5.8
2017-Sep-25 12:30N 38°18' W 009°11'3 6.2
2017-Sep-25 12:00N 38°21' W 009°13'3 5.3
2017-Sep-25 11:30N 38°24' W 009°14'2 4.7
2017-Sep-25 11:00N 38°26' W 009°14'3 5.4
2017-Sep-25 10:27N 38°29' W 009°15'2 4.7
2017-Sep-25 10:00N 38°31' W 009°16'3 5.6
2017-Sep-25 09:29N 38°33' W 009°19'2 4.7
2017-Sep-25 08:58N 38°35' W 009°20'2 5.3
2017-Sep-25 08:30N 38°37' W 009°22'3 6.5
2017-Sep-25 08:00N 38°40' W 009°24'2 0.2
2017-Sep-24 19:25N 38°42' W 009°25'0 0.0
2017-Sep-24 18:58N 38°42' W 009°25'0 0.0
2017-Sep-24 18:28N 38°42' W 009°25'0 0.0
2017-Sep-24 18:01N 38°42' W 009°25'0 0.0
2017-Sep-24 17:28N 38°42' W 009°25'0 0.0
2017-Sep-24 16:58N 38°42' W 009°25'0 0.0
2017-Sep-24 16:28N 38°42' W 009°25'0 0.0
2017-Sep-24 15:55N 38°42' W 009°25'0 0.1
2017-Sep-24 15:28N 38°42' W 009°25'0 0.0
2017-Sep-24 11:36N 38°42' W 009°25'0 0.1
2017-Sep-24 11:30N 38°42' W 009°25'0 0.4
2017-Sep-24 11:00N 38°42' W 009°25'0 0.0
2017-Sep-24 10:30N 38°42' W 009°25'0 0.0
2017-Sep-24 10:00N 38°42' W 009°25'0 0.0
2017-Sep-24 09:30N 38°42' W 009°25'0 0.0
2017-Sep-24 09:00N 38°42' W 009°25'0 0.0
2017-Sep-24 08:30N 38°42' W 009°25'0 0.4
2017-Sep-24 08:00N 38°42' W 009°25'2 4.8
2017-Sep-24 07:30N 38°41' W 009°28'3 6.3
2017-Sep-24 07:00N 38°43' W 009°31'4 6.9
2017-Sep-24 06:29N 38°47' W 009°32'3 7.0
2017-Sep-24 06:00N 38°50' W 009°32'3 6.8
2017-Sep-24 05:30N 38°54' W 009°31'4 7.2
2017-Sep-24 05:00N 38°57' W 009°30'3 6.9
2017-Sep-24 04:30N 39°01' W 009°30'3 6.6
2017-Sep-24 04:00N 39°04' W 009°29'3 6.2
2017-Sep-24 03:30N 39°07' W 009°28'3 6.5
2017-Sep-24 03:00N 39°10' W 009°28'3 6.4
2017-Sep-24 02:30N 39°13' W 009°27'3 6.4
2017-Sep-24 02:00N 39°16' W 009°27'3 6.8
2017-Sep-24 01:30N 39°20' W 009°27'4 7.3
2017-Sep-24 01:00N 39°23' W 009°26'4 7.0
2017-Sep-24 00:29N 39°27' W 009°26'  
Track history (hours):
 
Tides and Currents Weather Stations Pressure Air Temp Water Temp Dewpoint Dewpoint Depression Visibility Wind Speed Wind Dir Waves Ship Positions

Spirit

Last reported at 2017-Sep-28 14:36 UTC. Time now 2017-Oct-18 17:01 UTC.
Position N 36°58' W 008°03'.
Warning: this ship's position is 20 days out of date.

Length 14 m.

Type: Sailing vessel. MMSI: 244020915.

Date/timePositionNaut miles runAvg speedWind from/ knotsBaromVisibWave heightAir tempDewpointWater temp
2017-Sep-28 14:36N 36°58' W 008°03'1 6.5
2017-Sep-28 14:30N 36°58' W 008°03'3 5.1
2017-Sep-28 13:58N 36°58' W 008°07'2 4.4
2017-Sep-28 13:30N 36°58' W 008°09'3 5.9
2017-Sep-28 13:00N 36°58' W 008°13'3 6.4
2017-Sep-28 12:30N 36°58' W 008°17'3 6.3
2017-Sep-28 12:00N 36°59' W 008°21'3 6.2
2017-Sep-28 11:30N 36°59' W 008°25'3 6.3
2017-Sep-28 11:00N 36°59' W 008°29'3 6.5
2017-Sep-28 10:30N 36°59' W 008°33'3 6.3
2017-Sep-28 10:00N 36°60' W 008°37'3 6.1
2017-Sep-28 09:30N 36°60' W 008°41'3 6.0
2017-Sep-28 09:00N 37°00' W 008°44'3 6.1
2017-Sep-28 08:30N 37°00' W 008°48'3 5.9
2017-Sep-28 08:00N 37°01' W 008°52'3 0.2
2017-Sep-27 15:44N 37°00' W 008°56'10 4.7
2017-Sep-27 13:38N 37°10' W 008°59'31 6.8
2017-Sep-27 09:07N 37°40' W 008°54'2 6.7
2017-Sep-27 08:46N 37°42' W 008°53'2 6.5
2017-Sep-27 08:29N 37°44' W 008°53'3 6.6
2017-Sep-27 08:00N 37°47' W 008°53'3 6.7
2017-Sep-27 07:30N 37°51' W 008°53'3 6.6
2017-Sep-27 07:00N 37°54' W 008°52'3 5.9
2017-Sep-27 06:30N 37°57' W 008°52'0 0.0
2017-Sep-25 18:35N 37°57' W 008°52'0 0.0
2017-Sep-25 18:29N 37°57' W 008°52'0 0.1
2017-Sep-25 18:00N 37°57' W 008°52'2 3.3
2017-Sep-25 17:30N 37°56' W 008°54'3 5.3
2017-Sep-25 17:00N 37°57' W 008°57'3 5.8
2017-Sep-25 16:30N 37°59' W 008°59'3 5.4
2017-Sep-25 16:00N 38°02' W 009°00'3 5.4
2017-Sep-25 15:30N 38°04' W 009°02'3 5.1
2017-Sep-25 15:00N 38°06' W 009°04'3 5.0
2017-Sep-25 14:31N 38°08' W 009°05'3 5.3
2017-Sep-25 14:00N 38°11' W 009°07'3 5.3
2017-Sep-25 13:30N 38°13' W 009°08'3 5.6
2017-Sep-25 13:00N 38°16' W 009°10'3 5.8
2017-Sep-25 12:30N 38°18' W 009°11'3 6.2
2017-Sep-25 12:00N 38°21' W 009°13'3 5.3
2017-Sep-25 11:30N 38°24' W 009°14'2 4.7
2017-Sep-25 11:00N 38°26' W 009°14'3 5.4
2017-Sep-25 10:27N 38°29' W 009°15'2 4.7
2017-Sep-25 10:00N 38°31' W 009°16'3 5.6
2017-Sep-25 09:29N 38°33' W 009°19'2 4.7
2017-Sep-25 08:58N 38°35' W 009°20'2 5.3
2017-Sep-25 08:30N 38°37' W 009°22'3 6.5
2017-Sep-25 08:00N 38°40' W 009°24'2 0.2
2017-Sep-24 19:25N 38°42' W 009°25'0 0.0
2017-Sep-24 18:58N 38°42' W 009°25'0 0.0
2017-Sep-24 18:28N 38°42' W 009°25'0 0.0
2017-Sep-24 18:01N 38°42' W 009°25'0 0.0
2017-Sep-24 17:28N 38°42' W 009°25'0 0.0
2017-Sep-24 16:58N 38°42' W 009°25'0 0.0
2017-Sep-24 16:28N 38°42' W 009°25'0 0.0
2017-Sep-24 15:55N 38°42' W 009°25'0 0.1
2017-Sep-24 15:28N 38°42' W 009°25'0 0.0
2017-Sep-24 11:36N 38°42' W 009°25'0 0.1
2017-Sep-24 11:30N 38°42' W 009°25'0 0.4
2017-Sep-24 11:00N 38°42' W 009°25'0 0.0
2017-Sep-24 10:30N 38°42' W 009°25'0 0.0
2017-Sep-24 10:00N 38°42' W 009°25'0 0.0
2017-Sep-24 09:30N 38°42' W 009°25'0 0.0
2017-Sep-24 09:00N 38°42' W 009°25'0 0.0
2017-Sep-24 08:30N 38°42' W 009°25'0 0.4
2017-Sep-24 08:00N 38°42' W 009°25'2 4.8
2017-Sep-24 07:30N 38°41' W 009°28'3 6.3
2017-Sep-24 07:00N 38°43' W 009°31'4 6.9
2017-Sep-24 06:29N 38°47' W 009°32'3 7.0
2017-Sep-24 06:00N 38°50' W 009°32'3 6.8
2017-Sep-24 05:30N 38°54' W 009°31'4 7.2
2017-Sep-24 05:00N 38°57' W 009°30'3 6.9
2017-Sep-24 04:30N 39°01' W 009°30'3 6.6
2017-Sep-24 04:00N 39°04' W 009°29'3 6.2
2017-Sep-24 03:30N 39°07' W 009°28'3 6.5
2017-Sep-24 03:00N 39°10' W 009°28'3 6.4
2017-Sep-24 02:30N 39°13' W 009°27'3 6.4
2017-Sep-24 02:00N 39°16' W 009°27'3 6.8
2017-Sep-24 01:30N 39°20' W 009°27'4 7.3
2017-Sep-24 01:00N 39°23' W 009°26'4 7.0
2017-Sep-24 00:29N 39°27' W 009°26'  

Dump ship's entire track history